Time;durP1;ratioP1;P1;durP2;ratioP2;P2;SDS_P1;SDS_P2;PMS_P1;PMS_P2;Temp;Humidity;BMP_temperature;BMP_pressure;BME280_temperature;BME280_humidity;BME280_pressure;Samples;Min_cycle;Max_cycle;Signal;HPM_P1;HPM_P2
2021/08/08 00:02:27;;;;;;;0.10;0.10;;;;;;;25.29;48.70;99563.09;5032036;28;20137;-52
2021/08/08 00:04:53;;;;;;;0.00;0.00;;;;;;;25.23;48.85;99547.75;5031806;28;20075;-53
2021/08/08 00:07:19;;;;;;;0.10;0.10;;;;;;;25.27;48.80;99549.06;5031878;28;20076;-54
2021/08/08 00:09:45;;;;;;;0.10;0.10;;;;;;;25.23;48.66;99550.44;5032073;28;20133;-53
2021/08/08 00:12:12;;;;;;;0.10;0.10;;;;;;;25.27;48.69;99551.72;5031747;28;20140;-53
2021/08/08 00:14:38;;;;;;;0.10;0.10;;;;;;;25.27;48.73;99559.75;5031854;28;20124;-53
2021/08/08 00:17:04;;;;;;;0.10;0.10;;;;;;;25.20;48.44;99553.47;5031444;28;20439;-53
2021/08/08 00:19:31;;;;;;;0.22;0.22;;;;;;;25.26;48.49;99558.13;5031787;28;20549;-53
2021/08/08 00:21:57;;;;;;;0.10;0.10;;;;;;;25.20;48.75;99553.47;5031387;28;20049;-51
2021/08/08 00:24:24;;;;;;;0.10;0.10;;;;;;;25.21;48.81;99560.50;5046865;28;20053;-51
2021/08/08 00:27:04;;;;;;;0.20;0.20;;;;;;;25.25;48.71;99577.81;5066726;27;20390;-51
2021/08/08 00:29:30;;;;;;;0.10;0.10;;;;;;;25.21;48.72;99565.84;5067057;28;20410;-53
2021/08/08 00:31:58;;;;;;;0.10;0.10;;;;;;;25.19;48.80;99567.88;5066605;28;20078;-53
2021/08/08 00:34:26;;;;;;;0.10;0.10;;;;;;;25.18;48.76;99566.22;5067135;28;20041;-53
2021/08/08 00:36:54;;;;;;;0.28;0.28;;;;;;;25.22;48.74;99570.19;5065324;28;20049;-54
2021/08/08 00:39:21;;;;;;;0.10;0.10;;;;;;;25.22;48.70;99578.19;5065686;28;20041;-53
2021/08/08 00:41:53;;;;;;;0.35;0.35;;;;;;;25.22;48.74;99572.84;5065313;28;20047;-54
2021/08/08 00:44:19;;;;;;;0.10;0.10;;;;;;;25.22;48.82;99578.19;5065557;28;20117;-51
2021/08/08 00:46:46;;;;;;;0.10;0.10;;;;;;;25.14;48.67;99563.06;5065338;28;20040;-53
2021/08/08 00:49:13;;;;;;;0.10;0.10;;;;;;;25.20;48.66;99575.69;5032717;28;20049;-52
2021/08/08 00:51:38;;;;;;;0.25;0.25;;;;;;;25.15;48.64;99563.91;5065424;28;20059;-53
2021/08/08 00:54:07;;;;;;;0.20;0.20;;;;;;;25.20;48.42;99577.53;5065086;28;20444;-53
2021/08/08 00:56:37;;;;;;;0.13;0.13;;;;;;;25.19;48.54;99586.59;5065261;28;20048;-55
2021/08/08 00:59:05;;;;;;;0.15;0.15;;;;;;;25.19;48.52;99587.41;5064910;28;20087;-54
2021/08/08 01:01:36;;;;;;;0.10;0.10;;;;;;;25.19;48.77;99589.25;5066478;28;20087;-51
2021/08/08 01:04:06;;;;;;;0.00;0.00;;;;;;;25.19;48.62;99594.59;5064775;28;20076;-53
2021/08/08 01:06:42;;;;;;;0.20;0.20;;;;;;;25.11;48.55;99603.53;5048481;28;20422;-53
2021/08/08 01:09:09;;;;;;;0.00;0.00;;;;;;;25.18;48.73;99587.59;5032750;28;20076;-53
2021/08/08 01:11:39;;;;;;;0.10;0.10;;;;;;;25.18;48.40;99579.56;5064973;28;20044;-53
2021/08/08 01:14:06;;;;;;;0.20;0.20;;;;;;;25.15;48.41;99587.97;5047947;28;20090;-54
2021/08/08 01:16:36;;;;;;;0.10;0.10;;;;;;;25.11;48.49;99597.34;5048697;28;20048;-53
2021/08/08 01:19:03;;;;;;;0.10;0.10;;;;;;;25.15;48.45;99594.13;5064250;28;20040;-53
2021/08/08 01:21:31;;;;;;;0.10;0.10;;;;;;;25.10;48.67;99595.69;5015525;28;20132;-55
2021/08/08 01:23:59;;;;;;;0.20;0.20;;;;;;;25.12;48.59;99599.03;5031448;28;20085;-51
2021/08/08 01:26:26;;;;;;;0.20;0.20;;;;;;;25.09;48.47;99594.03;5047841;28;20061;-55
2021/08/08 01:28:53;;;;;;;0.10;0.10;;;;;;;25.05;48.38;99598.94;5031263;28;20045;-54
2021/08/08 01:31:21;;;;;;;0.30;0.30;;;;;;;25.11;48.50;99605.38;5064402;28;20068;-52
2021/08/08 01:33:47;;;;;;;0.10;0.10;;;;;;;25.13;48.20;99617.53;5064187;28;20051;-50
2021/08/08 01:36:15;;;;;;;0.10;0.10;;;;;;;25.13;48.46;99624.75;5062704;28;20049;-53
2021/08/08 01:39:12;;;;;;;0.10;0.10;;;;;;;25.13;48.38;99622.88;5034114;28;20036;-54
2021/08/08 01:41:42;;;;;;;0.10;0.10;;;;;;;25.11;48.56;99629.41;5037844;28;20095;-54
2021/08/08 01:44:09;;;;;;;0.10;0.10;;;;;;;25.08;48.23;99624.44;5050827;28;20063;-54
2021/08/08 01:46:39;;;;;;;0.10;0.10;;;;;;;25.12;48.58;99636.44;5034909;28;20498;-52
2021/08/08 01:49:28;;;;;;;0.28;0.28;;;;;;;25.06;48.42;99603.25;5050999;28;20574;-54
2021/08/08 01:51:54;;;;;;;0.35;0.35;;;;;;;25.05;48.06;99592.75;5017768;28;20577;-55
2021/08/08 01:54:21;;;;;;;0.10;0.10;;;;;;;25.07;48.33;99615.59;5034478;28;20036;-52
2021/08/08 01:56:52;;;;;;;0.10;0.10;;;;;;;25.02;48.48;99630.53;5050852;28;20120;-57
2021/08/08 01:59:18;;;;;;;0.10;0.10;;;;;;;24.95;48.67;99602.88;5034295;28;20047;-56
2021/08/08 02:01:45;;;;;;;0.10;0.10;;;;;;;25.05;48.53;99614.94;5034324;28;20041;-54
2021/08/08 02:04:24;;;;;;;0.03;0.03;;;;;;;25.05;48.26;99620.28;5050642;28;20550;-53
2021/08/08 02:06:59;;;;;;;0.10;0.10;;;;;;;24.97;48.26;99606.19;5050198;28;20045;-55
2021/08/08 02:09:25;;;;;;;0.20;0.20;;;;;;;25.04;48.49;99639.16;5034225;28;20083;-53
2021/08/08 02:11:51;;;;;;;0.38;0.38;;;;;;;25.04;48.46;99647.19;5050527;28;20045;-53
2021/08/08 02:14:20;;;;;;;0.10;0.10;;;;;;;25.00;48.49;99648.59;5034151;28;20041;-54
2021/08/08 02:16:49;;;;;;;0.17;0.17;;;;;;;25.01;48.37;99650.22;5034339;28;20052;-53
2021/08/08 02:19:18;;;;;;;0.10;0.10;;;;;;;24.98;48.54;99655.94;5034039;28;20037;-54
2021/08/08 02:21:50;;;;;;;0.10;0.10;;;;;;;25.04;48.50;99655.19;5019112;28;20106;-53
2021/08/08 02:24:19;;;;;;;0.10;0.10;;;;;;;25.02;48.32;99652.72;5034005;28;20048;-52
2021/08/08 02:27:14;;;;;;;0.10;0.10;;;;;;;25.02;48.49;99651.88;5025169;28;20044;-53
2021/08/08 02:30:05;;;;;;;0.10;0.10;;;;;;;25.02;48.44;99673.25;5050258;28;20052;-52
2021/08/08 02:32:51;;;;;;;0.22;0.22;;;;;;;24.88;48.60;99689.06;5036738;28;20041;-53
2021/08/08 02:35:38;;;;;;;0.10;0.10;;;;;;;24.98;48.63;99720.88;5036691;28;20182;-53
2021/08/08 02:38:26;;;;;;;0.17;0.17;;;;;;;24.99;48.60;99724.38;5036821;28;20076;-53
2021/08/08 02:41:17;;;;;;;0.25;0.25;;;;;;;24.99;48.58;99727.06;5050059;28;20049;-52
2021/08/08 02:44:04;;;;;;;0.30;0.30;;;;;;;25.01;48.56;99714.34;5049822;28;20072;-54
2021/08/08 02:46:50;;;;;;;0.20;0.20;;;;;;;24.99;48.52;99711.03;5050173;28;20044;-56
2021/08/08 02:49:38;;;;;;;0.10;0.10;;;;;;;24.99;48.59;99711.03;5049210;28;20044;-51
2021/08/08 02:52:25;;;;;;;0.10;0.10;;;;;;;24.99;48.42;99695.00;5049988;28;20625;-53
2021/08/08 02:55:13;;;;;;;0.77;0.77;;;;;;;24.98;48.65;99688.00;5036404;28;20037;-49
2021/08/08 02:58:04;;;;;;;0.10;0.10;;;;;;;24.95;48.71;99699.03;5049548;28;20040;-53
2021/08/08 03:00:54;;;;;;;0.20;0.20;;;;;;;24.96;48.69;99716.72;5050009;28;20080;-52
2021/08/08 03:03:40;;;;;;;0.22;0.22;;;;;;;24.94;48.68;99687.50;5049815;28;20127;-53
2021/08/08 03:06:29;;;;;;;0.30;0.30;;;;;;;24.78;48.80;99667.09;5049892;28;20049;-53
2021/08/08 03:09:15;;;;;;;0.10;0.10;;;;;;;24.88;48.87;99678.38;5049480;28;20275;-53
2021/08/08 03:12:01;;;;;;;0.20;0.20;;;;;;;24.96;48.76;99674.00;5050455;28;20128;-51
2021/08/08 03:14:51;;;;;;;0.10;0.10;;;;;;;24.95;48.54;99657.13;5049733;28;20044;-52
2021/08/08 03:17:37;;;;;;;0.10;0.10;;;;;;;24.94;48.47;99634.09;5049560;28;20040;-52
2021/08/08 03:20:23;;;;;;;0.20;0.20;;;;;;;25.00;48.42;99627.22;5049605;28;20048;-53
2021/08/08 03:23:12;;;;;;;0.10;0.10;;;;;;;25.02;47.90;99641.19;5049162;28;20045;-53
2021/08/08 03:25:58;;;;;;;0.17;0.17;;;;;;;25.04;48.21;99636.50;5048710;28;20053;-53
2021/08/08 03:28:44;;;;;;;0.10;0.10;;;;;;;25.03;48.34;99642.88;5049124;28;20178;-53
2021/08/08 03:31:30;;;;;;;0.10;0.10;;;;;;;25.00;48.42;99649.38;5035629;28;20040;-52
2021/08/08 03:34:16;;;;;;;0.10;0.10;;;;;;;24.96;48.48;99652.63;5035086;28;20059;-53
2021/08/08 03:37:02;;;;;;;0.10;0.10;;;;;;;24.94;48.72;99651.94;5049754;28;20043;-53
2021/08/08 03:39:52;;;;;;;0.10;0.10;;;;;;;24.94;48.68;99649.28;5049291;28;20081;-53
2021/08/08 03:42:37;;;;;;;0.20;0.20;;;;;;;24.88;48.70;99649.00;5050002;28;20110;-54
2021/08/08 03:45:24;;;;;;;0.10;0.10;;;;;;;24.88;48.80;99677.56;5049004;28;20135;-54
2021/08/08 03:48:10;;;;;;;0.10;0.10;;;;;;;24.82;48.74;99689.78;5035078;28;20041;-54
2021/08/08 03:50:56;;;;;;;0.20;0.20;;;;;;;24.91;48.90;99722.59;5049065;28;20049;-54
2021/08/08 03:53:42;;;;;;;0.10;0.10;;;;;;;24.88;48.92;99718.47;5049912;28;20041;-53
2021/08/08 03:56:28;;;;;;;0.10;0.10;;;;;;;24.86;48.90;99699.13;5049978;28;20080;-55
2021/08/08 03:59:14;;;;;;;0.20;0.20;;;;;;;24.89;48.83;99692.59;5034921;28;20033;-54
2021/08/08 04:02:01;;;;;;;0.10;0.10;;;;;;;24.92;48.76;99668.19;5048490;28;20094;-54
2021/08/08 04:04:47;;;;;;;0.38;0.38;;;;;;;24.99;48.68;99654.94;5049651;28;20488;-52
2021/08/08 04:07:33;;;;;;;0.20;0.20;;;;;;;24.90;48.74;99664.88;5048748;28;20572;-56
2021/08/08 04:10:20;;;;;;;0.10;0.10;;;;;;;25.00;48.54;99673.44;5048353;28;20101;-54
2021/08/08 04:13:07;;;;;;;0.20;0.20;;;;;;;25.06;48.60;99666.56;5048380;28;20049;-55
2021/08/08 04:15:53;;;;;;;0.10;0.10;;;;;;;25.08;48.55;99668.03;5048695;28;20049;-52
2021/08/08 04:18:40;;;;;;;0.10;0.10;;;;;;;25.04;48.45;99666.72;5048545;28;20415;-54
2021/08/08 04:21:27;;;;;;;0.10;0.10;;;;;;;25.09;48.55;99658.19;5021295;28;20102;-54
2021/08/08 04:24:13;;;;;;;0.10;0.10;;;;;;;25.17;48.24;99666.94;5034490;28;20037;-54
2021/08/08 04:26:58;;;;;;;0.10;0.10;;;;;;;25.24;48.23;99667.03;5049182;28;20183;-52
2021/08/08 04:29:45;;;;;;;0.10;0.10;;;;;;;25.27;48.02;99664.81;5048306;28;20053;-54
2021/08/08 04:32:31;;;;;;;0.10;0.10;;;;;;;25.35;47.83;99659.41;5020975;28;20080;-55
2021/08/08 04:35:17;;;;;;;0.10;0.10;;;;;;;25.16;47.82;99624.38;5048274;28;20536;-54
2021/08/08 04:38:02;;;;;;;0.38;0.38;;;;;;;25.51;47.50;99679.81;5047964;28;20047;-55
2021/08/08 04:40:50;;;;;;;0.10;0.10;;;;;;;25.63;47.34;99678.34;5048488;28;20055;-54
2021/08/08 04:43:35;;;;;;;0.85;0.32;;;;;;;25.77;47.03;99690.03;5020964;28;20040;-55
2021/08/08 04:46:22;;;;;;;0.10;0.10;;;;;;;25.83;46.63;99678.59;5048083;28;20243;-53
2021/08/08 04:49:07;;;;;;;0.10;0.10;;;;;;;25.90;46.65;99684.88;5048014;28;20047;-55
2021/08/08 04:51:54;;;;;;;0.10;0.10;;;;;;;25.92;46.81;99691.69;5048875;28;20423;-53
2021/08/08 04:54:39;;;;;;;0.10;0.10;;;;;;;25.92;46.57;99693.53;5048587;28;20048;-55
2021/08/08 04:57:28;;;;;;;0.20;0.20;;;;;;;25.86;46.57;99679.06;5048632;28;20407;-56
2021/08/08 05:00:17;;;;;;;0.10;0.10;;;;;;;26.01;46.72;99691.59;5021734;28;20128;-56
2021/08/08 05:03:04;;;;;;;0.17;0.17;;;;;;;26.09;46.56;99699.50;5048225;28;20400;-53
2021/08/08 05:05:51;;;;;;;0.10;0.10;;;;;;;26.14;46.24;99697.94;5048286;28;20064;-55
2021/08/08 05:08:37;;;;;;;0.10;0.10;;;;;;;26.35;45.84;99722.09;5048161;28;20052;-55
2021/08/08 05:11:23;;;;;;;0.10;0.10;;;;;;;26.53;45.32;99713.66;5049027;28;20493;-55
2021/08/08 05:14:13;;;;;;;0.10;0.10;;;;;;;26.74;44.82;99729.72;5053130;28;20419;-57
2021/08/08 05:17:01;;;;;;;0.10;0.10;;;;;;;26.95;44.30;99734.28;5039169;28;20469;-57
2021/08/08 05:19:48;;;;;;;0.20;0.20;;;;;;;27.27;43.54;99722.19;5052808;28;20044;-53
2021/08/08 05:22:34;;;;;;;0.20;0.20;;;;;;;27.51;42.85;99729.84;5052795;28;20056;-55
2021/08/08 05:25:21;;;;;;;0.25;0.25;;;;;;;27.62;42.97;99740.00;5051877;28;20080;-55
2021/08/08 05:28:07;;;;;;;0.10;0.10;;;;;;;27.68;42.96;99735.72;5053097;28;20060;-57
2021/08/08 05:30:53;;;;;;;0.10;0.10;;;;;;;27.67;42.64;99742.13;5052371;28;20051;-55
2021/08/08 05:33:40;;;;;;;0.10;0.10;;;;;;;27.55;42.99;99736.47;5053263;28;20114;-57
2021/08/08 05:36:27;;;;;;;0.15;0.15;;;;;;;27.57;42.82;99758.56;5052177;28;20064;-52
2021/08/08 05:39:12;;;;;;;0.10;0.10;;;;;;;27.56;43.30;99773.00;5052360;28;20084;-58
2021/08/08 05:41:59;;;;;;;0.10;0.10;;;;;;;27.54;43.05;99767.00;5051798;28;20080;-54
2021/08/08 05:44:45;;;;;;;0.00;0.00;;;;;;;27.52;42.99;99762.88;5052730;28;20444;-56
2021/08/08 05:47:31;;;;;;;0.10;0.10;;;;;;;27.55;43.26;99757.09;5052111;28;20392;-59
2021/08/08 05:50:18;;;;;;;0.10;0.10;;;;;;;27.64;43.11;99759.44;5038639;28;20040;-54
2021/08/08 05:53:04;;;;;;;0.10;0.10;;;;;;;27.76;42.56;99765.91;5038003;28;20533;-54
2021/08/08 05:55:51;;;;;;;0.22;0.22;;;;;;;27.88;42.42;99769.69;5037976;28;20530;-53
2021/08/08 05:58:39;;;;;;;0.20;0.20;;;;;;;27.99;42.01;99771.00;5038078;28;20583;-54
2021/08/08 06:01:25;;;;;;;0.10;0.10;;;;;;;28.10;41.87;99775.84;5024124;28;20045;-55
2021/08/08 06:04:12;;;;;;;0.13;0.13;;;;;;;28.24;41.64;99774.88;5052811;28;20056;-54
2021/08/08 06:07:01;;;;;;;0.10;0.10;;;;;;;28.16;41.70;99766.16;5052418;28;20044;-53
2021/08/08 06:09:48;;;;;;;0.10;0.10;;;;;;;28.02;42.25;99767.91;5038646;28;20104;-59
2021/08/08 06:12:35;;;;;;;0.35;0.35;;;;;;;27.87;42.36;99784.16;5051978;28;20049;-56
2021/08/08 06:15:22;;;;;;;0.10;0.10;;;;;;;27.65;42.82;99779.84;5024177;28;20410;-59
2021/08/08 06:18:10;;;;;;;0.20;0.20;;;;;;;27.41;43.37;99781.13;5037828;28;20509;-58
2021/08/08 06:20:56;;;;;;;0.20;0.20;;;;;;;27.21;43.68;99787.31;5052632;28;20651;-53
2021/08/08 06:24:07;;;;;;;0.20;0.20;;;;;;;27.07;44.41;99798.94;5051184;28;20049;-54
2021/08/08 06:26:55;;;;;;;0.22;0.22;;;;;;;26.89;44.70;99780.63;5051355;28;20152;-55
2021/08/08 06:29:41;;;;;;;0.35;0.35;;;;;;;26.81;45.20;99792.28;5051437;28;20083;-58
2021/08/08 06:32:27;;;;;;;0.15;0.15;;;;;;;26.72;45.11;99788.03;5051242;28;20123;-54
2021/08/08 06:35:13;;;;;;;0.10;0.10;;;;;;;26.64;45.62;99798.03;5051754;28;20414;-60
2021/08/08 06:38:00;;;;;;;0.20;0.20;;;;;;;26.50;45.62;99798.91;5051079;28;20060;-56
2021/08/08 06:40:46;;;;;;;0.13;0.13;;;;;;;26.41;45.79;99800.84;5051480;28;20037;-53
2021/08/08 06:43:32;;;;;;;2.10;0.43;;;;;;;26.35;46.23;99812.31;5049962;28;20041;-54
2021/08/08 06:46:18;;;;;;;0.10;0.10;;;;;;;26.32;46.12;99824.22;5050214;28;20140;-54
2021/08/08 06:49:04;;;;;;;0.08;0.08;;;;;;;26.29;46.36;99823.75;5051234;28;20055;-55
2021/08/08 06:51:30;;;;;;;0.10;0.10;;;;;;;26.23;46.62;99833.38;5051197;28;20419;-56
2021/08/08 06:54:45;;;;;;;0.10;0.10;;;;;;;26.26;46.71;99827.66;5050447;28;20071;-57
2021/08/08 06:57:32;;;;;;;0.10;0.10;;;;;;;26.30;46.67;99828.94;5037004;28;20047;-57
2021/08/08 07:00:24;;;;;;;0.10;0.10;;;;;;;26.44;46.36;99815.72;5049786;28;20036;-55
2021/08/08 07:03:10;;;;;;;0.10;0.10;;;;;;;26.72;45.74;99824.72;5050662;28;20037;-58
2021/08/08 07:05:56;;;;;;;0.10;0.10;;;;;;;27.04;44.95;99824.28;5049893;28;20056;-55
2021/08/08 07:08:43;;;;;;;0.10;0.10;;;;;;;27.45;43.64;99821.81;5049763;28;20041;-54
2021/08/08 07:11:29;;;;;;;0.22;0.22;;;;;;;27.74;43.54;99820.81;5049880;28;20033;-54
2021/08/08 07:14:16;;;;;;;0.45;0.45;;;;;;;27.84;43.21;99824.81;5035541;28;20033;-54
2021/08/08 07:17:02;;;;;;;0.10;0.10;;;;;;;27.88;42.93;99823.38;5049496;28;20041;-53
2021/08/08 07:19:48;;;;;;;0.10;0.10;;;;;;;27.87;43.01;99821.75;5050470;28;20041;-56
2021/08/08 07:22:34;;;;;;;0.10;0.10;;;;;;;27.85;43.13;99823.78;5050281;28;20087;-54
2021/08/08 07:25:21;;;;;;;0.15;0.15;;;;;;;27.76;43.46;99829.47;5048821;28;20056;-53
2021/08/08 07:28:07;;;;;;;0.10;0.10;;;;;;;27.69;43.61;99823.22;5050307;28;20053;-56
2021/08/08 07:30:53;;;;;;;0.10;0.10;;;;;;;27.73;43.46;99821.81;5049376;28;20048;-52
2021/08/08 07:33:39;;;;;;;0.40;0.40;;;;;;;27.79;43.01;99824.56;5050275;28;20053;-53
2021/08/08 07:36:27;;;;;;;0.10;0.10;;;;;;;27.88;42.93;99818.00;5048506;28;20048;-55
2021/08/08 07:39:13;;;;;;;0.10;0.10;;;;;;;27.95;42.98;99820.72;5048782;28;20427;-56
2021/08/08 07:41:59;;;;;;;0.10;0.10;;;;;;;28.01;42.65;99821.81;5049200;28;20495;-56
2021/08/08 07:44:45;;;;;;;1.92;0.17;;;;;;;28.07;42.47;99834.50;5050150;28;20049;-54
2021/08/08 07:47:33;;;;;;;0.17;0.17;;;;;;;28.14;42.30;99836.16;5048908;28;20040;-55
2021/08/08 07:50:19;;;;;;;0.20;0.20;;;;;;;28.25;42.29;99834.78;5021358;28;20510;-54
2021/08/08 07:53:06;;;;;;;0.15;0.15;;;;;;;28.30;42.23;99832.34;5050149;28;20044;-55
2021/08/08 07:55:55;;;;;;;0.20;0.20;;;;;;;28.28;42.16;99845.13;5049007;28;20187;-53
2021/08/08 07:58:42;;;;;;;0.10;0.10;;;;;;;28.24;42.33;99839.31;5048890;28;20051;-55
2021/08/08 08:01:28;;;;;;;0.22;0.22;;;;;;;28.17;42.56;99840.34;5048720;28;20044;-55
2021/08/08 08:04:14;;;;;;;0.00;0.00;;;;;;;27.93;42.75;99822.81;5048609;28;20036;-57
2021/08/08 08:07:02;;;;;;;0.20;0.20;;;;;;;28.05;42.90;99866.03;5048708;28;20060;-53
2021/08/08 08:09:48;;;;;;;0.00;0.00;;;;;;;27.94;43.32;99859.38;5049785;28;20457;-55
2021/08/08 08:12:34;;;;;;;0.10;0.10;;;;;;;27.76;43.54;99851.78;5048646;28;20948;-55
2021/08/08 08:15:20;;;;;;;0.10;0.10;;;;;;;27.77;43.57;99861.50;5049446;28;20036;-55
2021/08/08 08:18:06;;;;;;;0.45;0.45;;;;;;;27.63;43.70;99842.78;5034930;28;20041;-55
2021/08/08 08:20:52;;;;;;;0.10;0.10;;;;;;;27.76;43.70;99857.16;5048644;28;20036;-56
2021/08/08 08:23:38;;;;;;;0.10;0.10;;;;;;;28.02;43.18;99861.06;5049425;28;20041;-56
2021/08/08 08:26:24;;;;;;;0.10;0.10;;;;;;;28.32;42.33;99849.91;5049205;28;20083;-55
2021/08/08 08:29:10;;;;;;;0.10;0.10;;;;;;;28.59;41.79;99861.63;5048620;28;20623;-54
2021/08/08 08:31:56;;;;;;;0.10;0.10;;;;;;;28.61;41.66;99856.88;5049712;28;20087;-56
2021/08/08 08:34:42;;;;;;;0.10;0.10;;;;;;;28.67;41.46;99866.03;5048782;28;20045;-54
2021/08/08 08:37:32;;;;;;;0.10;0.10;;;;;;;28.78;41.28;99863.59;5049265;28;20041;-55
2021/08/08 08:40:20;;;;;;;0.10;0.10;;;;;;;28.93;41.14;99861.56;5048824;28;20057;-56
2021/08/08 08:43:10;;;;;;;0.20;0.20;;;;;;;28.99;40.92;99869.88;5034943;28;20049;-54
2021/08/08 08:45:56;;;;;;;0.10;0.10;;;;;;;28.93;40.79;99861.56;5021383;28;20155;-55
2021/08/08 08:48:42;;;;;;;0.10;0.10;;;;;;;28.93;41.09;99864.25;5038322;28;20400;-57
2021/08/08 08:51:32;;;;;;;0.10;0.10;;;;;;;28.83;41.07;99861.13;5053295;28;20339;-54
2021/08/08 08:54:18;;;;;;;0.20;0.20;;;;;;;28.83;41.25;99871.88;5052095;28;20044;-57
2021/08/08 08:57:06;;;;;;;0.10;0.10;;;;;;;28.70;41.34;99836.88;5052466;28;20040;-55
2021/08/08 08:59:53;;;;;;;0.20;0.20;;;;;;;28.89;41.34;99854.13;5052148;28;20037;-56
2021/08/08 09:02:40;;;;;;;0.20;0.20;;;;;;;28.96;41.08;99854.97;5038503;28;20075;-55
2021/08/08 09:05:28;;;;;;;0.10;0.10;;;;;;;29.09;40.88;99860.38;5051858;28;20059;-54
2021/08/08 09:08:15;;;;;;;0.10;0.10;;;;;;;29.20;40.67;99861.63;5052571;28;20053;-53
2021/08/08 09:11:05;;;;;;;0.10;0.10;;;;;;;29.24;40.60;99858.34;5051982;28;20045;-56
2021/08/08 09:13:55;;;;;;;0.10;0.10;;;;;;;29.27;40.45;99857.13;5038613;28;20516;-53
2021/08/08 09:16:52;;;;;;;0.25;0.25;;;;;;;29.23;40.71;99861.22;5038594;28;20051;-53
2021/08/08 09:19:40;;;;;;;0.15;0.15;;;;;;;29.17;41.06;99854.81;5051566;28;20040;-57
2021/08/08 09:22:30;;;;;;;0.13;0.13;;;;;;;29.10;41.10;99853.97;5052996;28;20132;-55
2021/08/08 09:25:21;;;;;;;0.17;0.17;;;;;;;29.04;41.55;99862.84;5051476;28;20368;-56
2021/08/08 09:28:09;;;;;;;0.10;0.10;;;;;;;28.89;41.78;99848.75;5051625;28;20040;-57
2021/08/08 09:30:55;;;;;;;0.13;0.13;;;;;;;28.90;41.77;99855.78;5051777;28;20140;-54
2021/08/08 09:33:42;;;;;;;0.10;0.10;;;;;;;28.83;42.02;99892.56;5051305;28;20052;-55
2021/08/08 09:36:27;;;;;;;0.10;0.10;;;;;;;28.65;42.28;99873.44;5052411;28;20110;-56
2021/08/08 09:39:14;;;;;;;0.10;0.10;;;;;;;28.69;42.47;99888.16;5051436;28;20040;-56
2021/08/08 09:42:12;;;;;;;0.25;0.25;;;;;;;28.59;42.54;99891.19;5024029;28;20041;-53
2021/08/08 09:45:04;;;;;;;0.10;0.10;;;;;;;28.57;42.67;99887.03;5051461;28;20507;-51
2021/08/08 09:47:50;;;;;;;0.00;0.00;;;;;;;28.49;42.58;99895.25;5052519;28;20060;-57
2021/08/08 09:50:37;;;;;;;0.10;0.10;;;;;;;28.59;42.62;99901.09;5052241;28;20059;-56
2021/08/08 09:53:23;;;;;;;1.15;1.13;;;;;;;28.62;42.63;99903.41;5052119;28;20072;-59
2021/08/08 09:56:19;;;;;;;0.30;0.30;;;;;;;28.69;42.19;99905.13;5052319;28;20322;-54
2021/08/08 09:59:05;;;;;;;0.30;0.30;;;;;;;28.75;42.25;99909.69;5051859;28;20450;-55
2021/08/08 10:01:50;;;;;;;0.10;0.10;;;;;;;28.80;42.10;99892.94;5052368;28;20052;-54
2021/08/08 10:04:36;;;;;;;0.20;0.20;;;;;;;28.86;42.09;99898.34;5051690;28;20049;-55
2021/08/08 10:07:22;;;;;;;0.32;0.32;;;;;;;28.85;42.00;99891.34;5051971;28;20155;-57
2021/08/08 10:10:08;;;;;;;0.20;0.20;;;;;;;28.79;41.94;99888.63;5051892;28;20059;-57
2021/08/08 10:13:20;;;;;;;0.10;0.10;;;;;;;28.75;42.10;99906.19;5051883;28;20148;-58
2021/08/08 10:16:09;;;;;;;0.10;0.10;;;;;;;28.70;41.96;99903.25;5051420;28;20090;-55
2021/08/08 10:18:56;;;;;;;0.10;0.10;;;;;;;28.69;42.31;99918.56;5038095;28;20413;-56
2021/08/08 10:21:42;;;;;;;0.10;0.10;;;;;;;28.65;42.45;99921.81;5051491;28;20048;-56
2021/08/08 10:24:28;;;;;;;0.20;0.20;;;;;;;28.61;42.33;99921.38;5051248;28;20052;-56
2021/08/08 10:27:21;;;;;;;0.10;0.10;;;;;;;28.55;42.57;99911.41;5051266;28;20545;-55
2021/08/08 10:30:07;;;;;;;0.10;0.10;;;;;;;28.59;42.42;99920.75;5050303;28;20190;-56
2021/08/08 10:32:53;;;;;;;0.10;0.10;;;;;;;28.59;42.37;99912.69;5050543;28;20067;-54
2021/08/08 10:35:46;;;;;;;0.10;0.10;;;;;;;28.59;42.71;99907.31;5050041;28;20040;-54
2021/08/08 10:38:35;;;;;;;0.25;0.25;;;;;;;28.58;42.52;99908.34;5051138;28;20526;-55
2021/08/08 10:41:21;;;;;;;0.10;0.10;;;;;;;28.56;42.55;99913.09;5051329;28;20033;-54
2021/08/08 10:44:11;;;;;;;0.10;0.10;;;;;;;28.49;42.65;99901.47;5051147;28;20033;-54
2021/08/08 10:46:56;;;;;;;;;;;;;;;28.54;42.71;99919.66;5051631;28;20063;-55
2021/08/08 10:49:43;;;;;;;0.10;0.10;;;;;;;28.54;42.63;99931.25;5049749;28;20049;-57
2021/08/08 10:52:37;;;;;;;0.05;0.05;;;;;;;28.57;42.63;99928.16;5050926;28;20140;-57
2021/08/08 10:55:27;;;;;;;0.10;0.10;;;;;;;28.58;42.49;99921.78;5050925;28;20037;-56
2021/08/08 10:58:16;;;;;;;0.20;0.20;;;;;;;28.58;42.37;99916.41;5050878;28;20124;-53
2021/08/08 11:01:22;;;;;;;0.10;0.10;;;;;;;28.63;42.64;99919.31;5050785;28;20045;-57
2021/08/08 11:04:08;;;;;;;0.10;0.10;;;;;;;28.66;42.34;99918.97;5050610;28;20045;-55
2021/08/08 11:06:54;;;;;;;0.10;0.10;;;;;;;28.66;42.41;99920.81;5050975;28;20051;-55
2021/08/08 11:09:40;;;;;;;0.10;0.10;;;;;;;28.59;42.52;99915.38;5049689;28;20411;-55
2021/08/08 11:12:40;;;;;;;0.10;0.10;;;;;;;28.62;42.59;99939.16;5049435;28;20525;-57
2021/08/08 11:15:34;;;;;;;0.10;0.10;;;;;;;28.56;42.56;99934.59;5050512;28;20060;-55
2021/08/08 11:18:30;;;;;;;0.32;0.30;;;;;;;28.51;42.61;99931.66;5050696;28;20044;-53
2021/08/08 11:21:15;;;;;;;0.13;0.13;;;;;;;28.42;43.05;99933.66;5035716;28;20053;-54
2021/08/08 11:24:03;;;;;;;0.10;0.10;;;;;;;28.34;42.94;99930.28;5050309;28;20570;-55
2021/08/08 11:26:50;;;;;;;0.10;0.10;;;;;;;28.21;43.35;99930.19;5050069;28;20053;-55
2021/08/08 11:29:36;;;;;;;0.28;0.28;;;;;;;28.16;43.39;99943.41;5050078;28;20463;-54
2021/08/08 11:32:29;;;;;;;0.10;0.10;;;;;;;28.06;43.87;99946.41;5050258;28;20120;-55
2021/08/08 11:35:16;;;;;;;0.10;0.10;;;;;;;27.98;43.95;99951.09;5050087;28;20040;-54
2021/08/08 11:38:14;;;;;;;0.10;0.10;;;;;;;27.90;44.28;99946.66;5049146;28;20124;-54
2021/08/08 11:41:00;;;;;;;0.30;0.30;;;;;;;27.83;44.23;99961.88;5050095;28;20048;-55
2021/08/08 11:43:46;;;;;;;0.00;0.00;;;;;;;27.75;44.75;99960.16;5049998;28;20041;-55
2021/08/08 11:46:32;;;;;;;0.13;0.13;;;;;;;27.67;44.50;99962.97;5049893;28;20055;-57
2021/08/08 11:49:19;;;;;;;0.13;0.13;;;;;;;27.61;45.11;99963.75;5049972;28;20048;-55
2021/08/08 11:52:05;;;;;;;0.17;0.17;;;;;;;27.51;45.27;99960.53;5050025;28;20080;-53
2021/08/08 11:55:05;;;;;;;0.10;0.10;;;;;;;27.43;45.38;99964.16;5049483;28;20123;-55
2021/08/08 11:58:02;;;;;;;0.00;0.00;;;;;;;27.36;45.22;99959.69;5049709;28;20048;-53
2021/08/08 12:00:48;;;;;;;0.10;0.10;;;;;;;27.36;45.26;99957.03;5048788;28;20048;-54
2021/08/08 12:03:40;;;;;;;0.15;0.15;;;;;;;27.31;45.88;99962.13;5049740;28;20044;-56
2021/08/08 12:06:26;;;;;;;0.10;0.10;;;;;;;27.22;45.59;99955.22;5049634;28;20041;-54
2021/08/08 12:09:12;;;;;;;0.10;0.10;;;;;;;27.15;46.22;99954.31;5049573;28;20068;-55
2021/08/08 12:11:58;;;;;;;0.10;0.10;;;;;;;27.12;46.15;99970.78;5034918;28;20036;-55
2021/08/08 12:14:55;;;;;;;0.10;0.10;;;;;;;27.06;46.13;99971.53;5049216;28;20499;-55
2021/08/08 12:17:41;;;;;;;0.10;0.10;;;;;;;26.98;46.26;99968.94;5049351;28;20041;-56
2021/08/08 12:20:37;;;;;;;0.20;0.20;;;;;;;26.96;46.50;99973.66;5048177;28;20045;-55
2021/08/08 12:23:24;;;;;;;0.10;0.10;;;;;;;26.92;46.27;99970.53;5048423;28;20547;-55
2021/08/08 12:26:10;;;;;;;0.10;0.10;;;;;;;26.89;46.73;99966.38;5049045;28;20041;-55
2021/08/08 12:29:03;;;;;;;0.20;0.20;;;;;;;26.83;46.54;99958.25;5049702;28;20086;-55
2021/08/08 12:31:49;;;;;;;0.20;0.20;;;;;;;26.83;46.87;99951.03;5049263;28;20044;-54
2021/08/08 12:34:34;;;;;;;0.10;0.10;;;;;;;26.75;46.68;99915.44;5048159;28;20036;-53
2021/08/08 12:37:21;;;;;;;0.10;0.10;;;;;;;26.88;46.87;99926.34;5049506;28;20531;-56
2021/08/08 12:40:16;;;;;;;0.05;0.05;;;;;;;27.09;46.43;99941.66;5049438;28;20427;-55
2021/08/08 12:43:02;;;;;;;0.10;0.10;;;;;;;27.24;46.06;99939.78;5049463;28;20131;-54
2021/08/08 12:45:48;;;;;;;0.10;0.10;;;;;;;27.36;45.42;99938.25;5049039;28;20045;-54
2021/08/08 12:48:34;;;;;;;0.10;0.10;;;;;;;27.43;45.19;99931.09;5049032;28;20640;-55
2021/08/08 12:51:20;;;;;;;0.00;0.00;;;;;;;27.64;45.03;99939.22;5048292;28;20045;-56
2021/08/08 12:54:07;;;;;;;0.10;0.10;;;;;;;27.79;44.58;99936.44;5048279;28;20446;-55